Perth, United Kingdom
Current Conditions -  °F | °C
As of 8:20 AM on Thursday 18 Dec 2014 (Local Time) from EGPN Reporting Station
Scattered Clouds Scattered Clouds  
Wind Chill: 42°   Ceiling: Unl
Heat Index: 46°   Visibility: 6mi
Dew Point: 45°   Wind: 9mph
Humidity: 93%   Direction: 270°W
Pressure: 29.29"   Gusts: NA
Location:  56.42°N, 3.46°W
Report Text: EGPN 180820Z 27008KT 9999 FEW028 SCT040 08/07 Q0992
Loading
Personal Weather Stations






























Interactive Weather Map New forecast layout! Learn more

10-Day Weather Forecast

Advertisements
Track Severe Weather on mobile